AirNav   Phillips 66 Aviation Fuel
 
 645 users online  

K91 Horton Municipal Airport
Horton, Kansas, USA


FAA INFORMATION EFFECTIVE 01 FEBRUARY 2018

Location

FAA Identifier: K91
Lat/Long: 39-40-45.0070N / 095-32-00.9290W
39-40.750117N / 095-32.015483W
39.6791686 / -95.5335914
(estimated)
Elevation: 1134 ft. / 346 m (estimated)
Variation: 06E (1985)
From city: 1 mile NW of HORTON, KS
Time zone: UTC -6 (UTC -5 during Daylight Saving Time)
Zip code: 66439

Airport Operations

Airport use: Open to the public
Activation date: 07/1949
Control tower: no
ARTCC: KANSAS CITY CENTER
FSS: WICHITA FLIGHT SERVICE STATION
NOTAMs facility: ICT (NOTAM-D service available)
Attendance: UNATNDD
FOR ARPT ATTENDANT CALL 785-486-2681/2694.
Wind indicator: lighted
Segmented circle: yes

Airport Communications

CTAF: 122.9
WX AWOS-3 at K59 (18 nm E): 123.675 (913-367-1449)
WX AWOS-3PT at K83 (18 nm NW): 118.475 (785-284-2201)

Nearby radio navigation aids

VOR radial/distance  VOR name  Freq  Var
RBAr202/11.5ROBINSON VOR/DME108.2004E
TOPr356/32.5TOPEKA VORTAC117.8005E
STJr231/32.7ST JOSEPH VORTAC115.5008E

 
NDB name  Hdg/Dist  Freq  Var  ID
AMAZON243/31.323304EAZN .- --.. -.

Airport Services

Parking: tiedowns

Runway Information

Runway 17/35

Dimensions: 2223 x 100 ft. / 678 x 30 m
Surface: turf, in good condition
Runway edge markings: 17/35 BOUNDARY MARKED BY 3 X 5 YELLOW CONC PADS.
RUNWAY 17  RUNWAY 35
Traffic pattern: leftleft
Obstructions: 5 ft. fence, marked, 5 ft. from runway, 1:1 slope to clear
FENCE OBSTN MKD WITH 4 X 4 YELLOW & BLACK STRIPED BOARD.
5 ft. brush, 32 ft. from runway, 32 ft. right of centerline, 6:1 slope to clear
FENCE OBSTN MKD WITH 4 X 4 YELLOW & BLACK STRIPED BOARD.

Runway 15/33

Dimensions: 1636 x 100 ft. / 499 x 30 m
Surface: turf, in good condition
Runway edge markings: 15/33 BOUNDARY MARKED BY 3 X 5 YELLOW CONC PADS.
RUNWAY 15  RUNWAY 33
Traffic pattern: leftleft
Obstructions: 13 ft. road, 237 ft. from runway, 18:1 slope to clear
+5 FENCE 212' FROM THLD.
4 ft. fence, marked, 15 ft. from runway, 3:1 slope to clear
FENCE OBSTN MKD WITH YELLOW & BLACK STRIPED BOARD.

Airport Ownership and Management from official FAA records

Ownership: Publicly-owned
Owner: CITY OF HORTON
PO BOX 30
HORTON, KS 66439
Phone 785-486-2681
Manager: N. A.
202 E. 8TH STREET
HORTON, KS 66439
Phone 785-486-2681
KIM CLAUSEN - CITY ADMINISTRATOR.

Airport Operational Statistics

Aircraft operations: 100/year *
100% transient general aviation
* for 12-month period ending 31 August 2017

Additional Remarks

NO SNOW REMOVAL WINTER MONTHS.
NO PUBLIC PHONE OR FACILITIES AT ARPT.
+150 FT UNLGTD ANT ON WTR TWR 3684 FT SE OF AER 33.
TIEDOWN AREA & TWY UNMKD; MINIMAL MAINT; VERY ROUGH

Instrument Procedures

There are no published instrument procedures at K91.

Some nearby airports with instrument procedures:

K59 - Amelia Earhart Airport (18 nm E)
KFNB - Brenner Field Airport (24 nm N)
KSTJ - Rosecrans Memorial Airport (29 nm E)
KFLV - Sherman Army Airfield (34 nm SE)
KTOP - Philip Billard Municipal Airport (37 nm S)
 
Loc | Ops | Rwys | IFR | FBO | Links
Com | Nav | Svcs | Stats | Notes

Kansas City Aviation Department
 
Area around K91 (Horton Municipal Airport)
 
Road maps at: MapQuest Bing Google
 
Aerial photo
WARNING: Photo may not be current or correct
Aerial photo of K91 (Horton Municipal Airport)
Photo taken 18-Feb-2017
looking south.

Do you have a better or more recent aerial photo of Horton Municipal Airport that you would like to share? If so, please send us your photo.

 
Sectional chart

 
Airport distance calculator
Flying to Horton Municipal Airport? Find the distance to fly.

From to K91

Sunrise and sunset
Times for 20-Feb-2018
 Local
(UTC-6)
 Zulu
(UTC)
Morning civil twilight06:4212:42
Sunrise07:0913:09
Sunset18:0300:03
Evening civil twilight18:3000:30

Current date and time
Zulu (UTC)  20-Feb-2018 12:19:27
Local (UTC-6)  20-Feb-2018 06:19:27
 
METAR
KFNB 
23nm N 
201153Z AUTO 32012KT 7SM OVC007 M05/M06 A2991 RMK AO2 SLP141 6//// 7//// I1002 I6005 T10501061 11028 21050 53018 PNO $
KSTJ 
29nm E 
201204Z AUTO 33012KT 2 1/2SM BR OVC008 M02/M02 A2989 RMK AO2 CIG 005V011 T10221022 $
KTOP 
37nm S 
201153Z AUTO 33012KT 3SM -FZRA BR BKN008 OVC012 M02/M03 A2990 RMK AO2 FZRAB38 CIG 005V010 SLP135 P0000 60006 70006 I1002 I6011 T10221028 11017 21022 50014
KLWC 
42nm S 
201152Z AUTO 30010KT 2 1/2SM BR OVC006 M01/M02 A2989 RMK AO2 PRESRR SLP130 60011 70012 I1001 I6009 T10111017 11006 21017 53016
KMCI 
43nm SE 
201153Z 36007KT 2 1/2SM -FZDZ BR OVC004 M02/M02 A2984 RMK AO2 SLP114 P0000 60017 70019 I1000 I6008 T10171022 11011 21017 50014
KFOE 
45nm S 
201153Z 33017G21KT 2 1/2SM -FZRA BR BKN006 OVC010 M02/M03 A2989 RMK AO2 FZRAB50 CIG 004V008 SLP130 P0000 60003 70003 I1002 I6011 T10171028 11011 21022 53020
TAF
KSTJ 
29nm E 
201126Z 2012/2112 34009KT P6SM -FZRA OVC008 TEMPO 2012/2016 4SM BR FM201600 33012KT P6SM VCSH OVC015 FM201800 33013KT P6SM OVC020 FM202000 33014KT P6SM BKN045 FM202200 34012KT P6SM SCT150
NOTAMs
Click for the latest NOTAMs
NOTAMs are issued by the DoD/FAA and will open in a separate window not controlled by AirNav.

 

 
 

Would you like to see your business listed on this page?

 If your business provides an interesting product or service to pilots, flight crews, aircraft, or users of the Horton Municipal Airport, you should consider listing it here.  To start the listing process, click on the button below
 
Add a business
 

Other Pages about Horton Municipal Airport

Update a link
 
Copyright © AirNav, LLC. All rights reserved. Privacy Policy  Contact